sensor_id;sensor_type;location;lat;lon;timestamp;pressure;altitude;pressure_sealevel;temperature;humidity
16100;BME280;8154;50.830;12.082;2024-02-21T00:02:11;100077.09;;;23.56;33.77
16100;BME280;8154;50.830;12.082;2024-02-21T00:04:38;100087.22;;;23.61;33.94
16100;BME280;8154;50.830;12.082;2024-02-21T00:07:05;100088.25;;;23.60;33.88
16100;BME280;8154;50.830;12.082;2024-02-21T00:09:31;100087.69;;;23.64;33.86
16100;BME280;8154;50.830;12.082;2024-02-21T00:11:58;100083.66;;;23.68;33.72
16100;BME280;8154;50.830;12.082;2024-02-21T00:14:28;100078.59;;;23.73;33.70
16100;BME280;8154;50.830;12.082;2024-02-21T00:16:54;100069.13;;;23.71;33.67
16100;BME280;8154;50.830;12.082;2024-02-21T00:19:23;100070.94;;;23.70;33.46
16100;BME280;8154;50.830;12.082;2024-02-21T00:21:52;100065.00;;;23.68;33.60
16100;BME280;8154;50.830;12.082;2024-02-21T00:24:18;100073.00;;;23.68;33.58
16100;BME280;8154;50.830;12.082;2024-02-21T00:27:01;100067.66;;;23.68;33.79
16100;BME280;8154;50.830;12.082;2024-02-21T00:29:27;100059.47;;;23.70;33.53
16100;BME280;8154;50.830;12.082;2024-02-21T00:31:54;100057.16;;;23.67;33.77
16100;BME280;8154;50.830;12.082;2024-02-21T00:34:21;100046.63;;;23.65;33.34
16100;BME280;8154;50.830;12.082;2024-02-21T00:36:50;100057.31;;;23.65;33.74
16100;BME280;8154;50.830;12.082;2024-02-21T00:39:18;100053.00;;;23.64;33.70
16100;BME280;8154;50.830;12.082;2024-02-21T00:41:47;100045.00;;;23.64;33.74
16100;BME280;8154;50.830;12.082;2024-02-21T00:44:13;100046.50;;;23.67;33.83
16100;BME280;8154;50.830;12.082;2024-02-21T00:46:39;100031.75;;;23.71;33.72
16100;BME280;8154;50.830;12.082;2024-02-21T00:49:05;100032.59;;;23.71;33.59
16100;BME280;8154;50.830;12.082;2024-02-21T00:51:33;100024.22;;;23.74;33.48
16100;BME280;8154;50.830;12.082;2024-02-21T00:53:59;100026.22;;;23.72;33.63
16100;BME280;8154;50.830;12.082;2024-02-21T00:56:47;100000.25;;;23.52;33.75
16100;BME280;8154;50.830;12.082;2024-02-21T00:59:13;100020.44;;;23.69;33.58
16100;BME280;8154;50.830;12.082;2024-02-21T01:01:42;100021.72;;;23.73;33.83
16100;BME280;8154;50.830;12.082;2024-02-21T01:04:11;100019.25;;;23.71;33.62
16100;BME280;8154;50.830;12.082;2024-02-21T01:06:39;100005.06;;;23.71;33.65
16100;BME280;8154;50.830;12.082;2024-02-21T01:09:13;100000.66;;;23.63;33.76
16100;BME280;8154;50.830;12.082;2024-02-21T01:11:41;99999.16;;;23.61;33.65
16100;BME280;8154;50.830;12.082;2024-02-21T01:14:08;100002.56;;;23.55;33.76
16100;BME280;8154;50.830;12.082;2024-02-21T01:16:35;100004.31;;;23.62;33.71
16100;BME280;8154;50.830;12.082;2024-02-21T01:19:22;100009.94;;;23.67;33.74
16100;BME280;8154;50.830;12.082;2024-02-21T01:21:51;100006.09;;;23.70;33.73
16100;BME280;8154;50.830;12.082;2024-02-21T01:24:20;100001.56;;;23.70;33.44
16100;BME280;8154;50.830;12.082;2024-02-21T01:26:46;99997.91;;;23.71;33.68
16100;BME280;8154;50.830;12.082;2024-02-21T01:29:13;100001.56;;;23.70;33.83
16100;BME280;8154;50.830;12.082;2024-02-21T01:32:00;100000.94;;;23.68;33.69
16100;BME280;8154;50.830;12.082;2024-02-21T01:34:26;99993.13;;;23.67;33.61
16100;BME280;8154;50.830;12.082;2024-02-21T01:36:54;99989.41;;;23.68;33.73
16100;BME280;8154;50.830;12.082;2024-02-21T01:39:20;99984.28;;;23.66;33.53
16100;BME280;8154;50.830;12.082;2024-02-21T01:41:46;99983.25;;;23.67;33.63
16100;BME280;8154;50.830;12.082;2024-02-21T01:44:14;99969.72;;;23.69;33.61
16100;BME280;8154;50.830;12.082;2024-02-21T01:46:42;99970.38;;;23.71;33.42
16100;BME280;8154;50.830;12.082;2024-02-21T01:49:09;99959.13;;;23.61;33.62
16100;BME280;8154;50.830;12.082;2024-02-21T01:51:36;99961.44;;;23.64;33.64
16100;BME280;8154;50.830;12.082;2024-02-21T01:54:03;99957.31;;;23.61;33.75
16100;BME280;8154;50.830;12.082;2024-02-21T01:56:29;99955.91;;;23.65;33.75
16100;BME280;8154;50.830;12.082;2024-02-21T01:58:56;99946.91;;;23.66;33.57
16100;BME280;8154;50.830;12.082;2024-02-21T02:01:23;99946.72;;;23.68;33.79
16100;BME280;8154;50.830;12.082;2024-02-21T02:03:49;99952.06;;;23.68;33.73
16100;BME280;8154;50.830;12.082;2024-02-21T02:06:18;99947.75;;;23.67;33.54
16100;BME280;8154;50.830;12.082;2024-02-21T02:08:47;99952.06;;;23.68;33.52
16100;BME280;8154;50.830;12.082;2024-02-21T02:11:17;99949.84;;;23.71;33.47
16100;BME280;8154;50.830;12.082;2024-02-21T02:13:43;99943.50;;;23.72;33.63
16100;BME280;8154;50.830;12.082;2024-02-21T02:16:09;99939.91;;;23.65;33.64
16100;BME280;8154;50.830;12.082;2024-02-21T02:18:37;99939.75;;;23.67;33.53
16100;BME280;8154;50.830;12.082;2024-02-21T02:21:34;99932.44;;;23.61;33.97
16100;BME280;8154;50.830;12.082;2024-02-21T02:24:24;99931.00;;;23.58;33.66
16100;BME280;8154;50.830;12.082;2024-02-21T02:26:54;99928.50;;;23.57;33.65
16100;BME280;8154;50.830;12.082;2024-02-21T02:29:23;99927.38;;;23.66;33.90
16100;BME280;8154;50.830;12.082;2024-02-21T02:31:53;99919.19;;;23.67;33.69
16100;BME280;8154;50.830;12.082;2024-02-21T02:34:21;99925.75;;;23.65;33.49
16100;BME280;8154;50.830;12.082;2024-02-21T02:36:51;99912.41;;;23.65;33.59
16100;BME280;8154;50.830;12.082;2024-02-21T02:39:17;99911.19;;;23.67;33.65
16100;BME280;8154;50.830;12.082;2024-02-21T02:41:43;99903.00;;;23.69;33.52
16100;BME280;8154;50.830;12.082;2024-02-21T02:44:29;99898.31;;;23.71;33.49
16100;BME280;8154;50.830;12.082;2024-02-21T02:46:58;99902.63;;;23.72;33.75
16100;BME280;8154;50.830;12.082;2024-02-21T02:49:26;99890.69;;;23.68;33.52
16100;BME280;8154;50.830;12.082;2024-02-21T02:51:55;99889.56;;;23.62;33.52
16100;BME280;8154;50.830;12.082;2024-02-21T02:54:24;99894.38;;;23.67;33.61
16100;BME280;8154;50.830;12.082;2024-02-21T02:56:50;99884.69;;;23.66;33.36
16100;BME280;8154;50.830;12.082;2024-02-21T02:59:17;99885.34;;;23.68;33.70
16100;BME280;8154;50.830;12.082;2024-02-21T03:01:43;99889.56;;;23.62;33.55
16100;BME280;8154;50.830;12.082;2024-02-21T03:04:09;99888.38;;;23.65;33.80
16100;BME280;8154;50.830;12.082;2024-02-21T03:06:56;99894.00;;;23.70;33.69
16100;BME280;8154;50.830;12.082;2024-02-21T03:09:25;99896.41;;;23.65;33.59
16100;BME280;8154;50.830;12.082;2024-02-21T03:11:51;99884.78;;;23.58;33.67
16100;BME280;8154;50.830;12.082;2024-02-21T03:14:21;99906.03;;;23.66;33.57
16100;BME280;8154;50.830;12.082;2024-02-21T03:16:51;99904.88;;;23.68;33.68
16100;BME280;8154;50.830;12.082;2024-02-21T03:19:20;99905.28;;;23.72;33.61
16100;BME280;8154;50.830;12.082;2024-02-21T03:21:47;99912.31;;;23.73;33.64
16100;BME280;8154;50.830;12.082;2024-02-21T03:24:32;99910.44;;;23.73;33.64
16100;BME280;8154;50.830;12.082;2024-02-21T03:26:59;99914.97;;;23.73;33.29
16100;BME280;8154;50.830;12.082;2024-02-21T03:29:25;99910.19;;;23.68;33.51
16100;BME280;8154;50.830;12.082;2024-02-21T03:31:52;99907.16;;;23.71;33.49
16100;BME280;8154;50.830;12.082;2024-02-21T03:34:21;99904.03;;;23.68;33.73
16100;BME280;8154;50.830;12.082;2024-02-21T03:36:50;99903.56;;;23.64;33.58
16100;BME280;8154;50.830;12.082;2024-02-21T03:39:19;99901.72;;;23.65;33.52
16100;BME280;8154;50.830;12.082;2024-02-21T03:41:49;99897.66;;;23.69;33.76
16100;BME280;8154;50.830;12.082;2024-02-21T03:44:16;99903.66;;;23.71;33.51
16100;BME280;8154;50.830;12.082;2024-02-21T03:46:43;99897.47;;;23.70;33.42
16100;BME280;8154;50.830;12.082;2024-02-21T03:49:11;99901.81;;;23.71;33.55
16100;BME280;8154;50.830;12.082;2024-02-21T03:51:55;99904.31;;;23.73;33.62
16100;BME280;8154;50.830;12.082;2024-02-21T03:54:24;99897.28;;;23.72;33.67
16100;BME280;8154;50.830;12.082;2024-02-21T03:56:54;99897.94;;;23.74;33.54
16100;BME280;8154;50.830;12.082;2024-02-21T03:59:23;99891.34;;;23.70;33.62
16100;BME280;8154;50.830;12.082;2024-02-21T04:01:52;99888.38;;;23.65;33.70
16100;BME280;8154;50.830;12.082;2024-02-21T04:04:43;99895.75;;;23.63;33.76
16100;BME280;8154;50.830;12.082;2024-02-21T04:07:09;99892.97;;;23.56;33.94
16100;BME280;8154;50.830;12.082;2024-02-21T04:09:36;99890.50;;;23.55;33.82
16100;BME280;8154;50.830;12.082;2024-02-21T04:12:05;99892.00;;;23.57;33.86
16100;BME280;8154;50.830;12.082;2024-02-21T04:14:34;99889.38;;;23.64;33.57
16100;BME280;8154;50.830;12.082;2024-02-21T04:17:04;99891.06;;;23.65;33.64
16100;BME280;8154;50.830;12.082;2024-02-21T04:19:34;99880.00;;;23.68;33.77
16100;BME280;8154;50.830;12.082;2024-02-21T04:22:03;99866.66;;;23.68;33.63
16100;BME280;8154;50.830;12.082;2024-02-21T04:24:30;99879.16;;;23.67;33.78
16100;BME280;8154;50.830;12.082;2024-02-21T04:26:56;99866.84;;;23.66;33.76
16100;BME280;8154;50.830;12.082;2024-02-21T04:29:22;99860.50;;;23.67;33.51
16100;BME280;8154;50.830;12.082;2024-02-21T04:32:10;99852.94;;;23.71;33.40
16100;BME280;8154;50.830;12.082;2024-02-21T04:34:36;99829.31;;;23.53;33.78
16100;BME280;8154;50.830;12.082;2024-02-21T04:37:03;99845.69;;;23.65;33.54
16100;BME280;8154;50.830;12.082;2024-02-21T04:39:29;99841.16;;;23.65;33.65
16100;BME280;8154;50.830;12.082;2024-02-21T04:41:56;99837.69;;;23.65;33.69
16100;BME280;8154;50.830;12.082;2024-02-21T04:44:25;99835.41;;;23.62;33.81
16100;BME280;8154;50.830;12.082;2024-02-21T04:47:10;99816.16;;;23.52;33.57
16100;BME280;8154;50.830;12.082;2024-02-21T04:49:36;99822.31;;;23.67;33.70
16100;BME280;8154;50.830;12.082;2024-02-21T04:52:04;99816.97;;;23.67;33.39
16100;BME280;8154;50.830;12.082;2024-02-21T04:54:32;99805.59;;;23.58;33.69
16100;BME280;8154;50.830;12.082;2024-02-21T04:57:16;99807.22;;;23.59;33.59
16100;BME280;8154;50.830;12.082;2024-02-21T04:59:46;99815.50;;;23.64;33.44
16100;BME280;8154;50.830;12.082;2024-02-21T05:02:16;99813.66;;;23.65;33.53
16100;BME280;8154;50.830;12.082;2024-02-21T05:04:46;99818.63;;;23.68;33.56
16100;BME280;8154;50.830;12.082;2024-02-21T05:07:15;99811.00;;;23.65;33.42
16100;BME280;8154;50.830;12.082;2024-02-21T05:09:44;99822.47;;;23.65;33.45
16100;BME280;8154;50.830;12.082;2024-02-21T05:12:11;99824.06;;;23.60;33.63
16100;BME280;8154;50.830;12.082;2024-02-21T05:14:37;99812.81;;;23.64;33.49
16100;BME280;8154;50.830;12.082;2024-02-21T05:17:04;99813.59;;;23.58;33.73
16100;BME280;8154;50.830;12.082;2024-02-21T05:19:31;99804.38;;;23.61;33.39
16100;BME280;8154;50.830;12.082;2024-02-21T05:22:01;99793.44;;;23.56;33.68
16100;BME280;8154;50.830;12.082;2024-02-21T05:24:29;99789.50;;;23.52;33.80
16100;BME280;8154;50.830;12.082;2024-02-21T05:26:59;99790.31;;;23.52;33.67
16100;BME280;8154;50.830;12.082;2024-02-21T05:29:28;99798.78;;;23.56;33.95
16100;BME280;8154;50.830;12.082;2024-02-21T05:31:56;99791.41;;;23.58;33.78
16100;BME280;8154;50.830;12.082;2024-02-21T05:34:23;99789.84;;;23.63;33.55
16100;BME280;8154;50.830;12.082;2024-02-21T05:36:49;99765.66;;;23.50;33.46
16100;BME280;8154;50.830;12.082;2024-02-21T05:39:17;99785.69;;;23.61;33.86
16100;BME280;8154;50.830;12.082;2024-02-21T05:41:46;99783.84;;;23.61;33.38
16100;BME280;8154;50.830;12.082;2024-02-21T05:44:32;99781.38;;;23.60;33.28
16100;BME280;8154;50.830;12.082;2024-02-21T05:47:01;99772.34;;;23.61;33.41
16100;BME280;8154;50.830;12.082;2024-02-21T05:49:30;99762.50;;;23.61;33.43
16100;BME280;8154;50.830;12.082;2024-02-21T05:51:57;99741.84;;;23.49;33.50
16100;BME280;8154;50.830;12.082;2024-02-21T05:54:23;99754.69;;;23.60;33.63
16100;BME280;8154;50.830;12.082;2024-02-21T05:56:50;99765.81;;;23.63;33.40
16100;BME280;8154;50.830;12.082;2024-02-21T05:59:16;99754.81;;;23.52;33.78
16100;BME280;8154;50.830;12.082;2024-02-21T06:01:42;99758.13;;;23.54;33.63
16100;BME280;8154;50.830;12.082;2024-02-21T06:04:14;99759.38;;;23.58;33.62
16100;BME280;8154;50.830;12.082;2024-02-21T06:06:40;99759.47;;;23.64;33.38
16100;BME280;8154;50.830;12.082;2024-02-21T06:09:09;99761.09;;;23.65;33.66
16100;BME280;8154;50.830;12.082;2024-02-21T06:11:38;99755.59;;;23.67;33.39
16100;BME280;8154;50.830;12.082;2024-02-21T06:14:22;99758.28;;;23.67;33.34
16100;BME280;8154;50.830;12.082;2024-02-21T06:16:48;99738.31;;;23.63;33.55
16100;BME280;8154;50.830;12.082;2024-02-21T06:19:14;99739.13;;;23.63;33.32
16100;BME280;8154;50.830;12.082;2024-02-21T06:21:40;99736.09;;;23.66;33.54
16100;BME280;8154;50.830;12.082;2024-02-21T06:24:08;99735.56;;;23.56;33.41
16100;BME280;8154;50.830;12.082;2024-02-21T06:26:38;99739.06;;;23.57;33.55
16100;BME280;8154;50.830;12.082;2024-02-21T06:29:08;99716.38;;;23.46;33.58
16100;BME280;8154;50.830;12.082;2024-02-21T06:31:40;99736.22;;;23.58;33.42
16100;BME280;8154;50.830;12.082;2024-02-21T06:34:07;99735.56;;;23.56;33.73
16100;BME280;8154;50.830;12.082;2024-02-21T06:36:34;99737.81;;;23.53;33.63
16100;BME280;8154;50.830;12.082;2024-02-21T06:39:02;99744.41;;;23.57;33.75
16100;BME280;8154;50.830;12.082;2024-02-21T06:41:33;99742.19;;;23.60;33.63
16100;BME280;8154;50.830;12.082;2024-02-21T06:44:02;99745.66;;;23.61;33.41
16100;BME280;8154;50.830;12.082;2024-02-21T06:46:52;99740.31;;;23.61;33.38
16100;BME280;8154;50.830;12.082;2024-02-21T06:49:20;99721.34;;;23.49;33.52
16100;BME280;8154;50.830;12.082;2024-02-21T06:51:49;99741.53;;;23.58;33.52
16100;BME280;8154;50.830;12.082;2024-02-21T06:54:15;99756.22;;;23.69;33.50
16100;BME280;8154;50.830;12.082;2024-02-21T06:56:44;99756.41;;;23.67;33.53
16100;BME280;8154;50.830;12.082;2024-02-21T06:59:10;99758.38;;;23.59;33.52
16100;BME280;8154;50.830;12.082;2024-02-21T07:01:53;99763.06;;;23.57;33.62
16100;BME280;8154;50.830;12.082;2024-02-21T07:04:19;99757.94;;;23.55;33.52
16100;BME280;8154;50.830;12.082;2024-02-21T07:06:46;99765.38;;;23.60;33.68
16100;BME280;8154;50.830;12.082;2024-02-21T07:09:14;99779.78;;;23.65;33.32
16100;BME280;8154;50.830;12.082;2024-02-21T07:11:43;99787.16;;;23.63;33.46
16100;BME280;8154;50.830;12.082;2024-02-21T07:14:14;99782.63;;;23.64;33.38
16100;BME280;8154;50.830;12.082;2024-02-21T07:16:44;99773.81;;;23.63;33.32
16100;BME280;8154;50.830;12.082;2024-02-21T07:19:11;99742.13;;;23.54;33.53
16100;BME280;8154;50.830;12.082;2024-02-21T07:21:37;99761.75;;;23.67;33.42
16100;BME280;8154;50.830;12.082;2024-02-21T07:24:09;99763.34;;;23.62;33.28
16100;BME280;8154;50.830;12.082;2024-02-21T07:26:36;99788.25;;;23.69;33.27
16100;BME280;8154;50.830;12.082;2024-02-21T07:29:04;99767.75;;;23.55;33.34
16100;BME280;8154;50.830;12.082;2024-02-21T07:31:48;99779.44;;;23.68;33.42
16100;BME280;8154;50.830;12.082;2024-02-21T07:34:14;99782.44;;;23.65;33.63
16100;BME280;8154;50.830;12.082;2024-02-21T07:36:44;99778.72;;;23.60;33.56
16100;BME280;8154;50.830;12.082;2024-02-21T07:39:15;99792.69;;;23.62;33.53
16100;BME280;8154;50.830;12.082;2024-02-21T07:41:41;99797.19;;;23.61;33.69
16100;BME280;8154;50.830;12.082;2024-02-21T07:44:09;99792.50;;;23.63;33.44
16100;BME280;8154;50.830;12.082;2024-02-21T07:46:39;99783.84;;;23.61;33.42
16100;BME280;8154;50.830;12.082;2024-02-21T07:49:05;99781.19;;;23.61;33.45
16100;BME280;8154;50.830;12.082;2024-02-21T07:51:31;99772.16;;;23.62;33.50
16100;BME280;8154;50.830;12.082;2024-02-21T07:54:00;99760.09;;;23.66;33.50
16100;BME280;8154;50.830;12.082;2024-02-21T07:56:30;99754.19;;;23.71;33.50
16100;BME280;8154;50.830;12.082;2024-02-21T07:58:58;99761.75;;;23.67;33.50
16100;BME280;8154;50.830;12.082;2024-02-21T08:01:27;99768.75;;;23.68;33.31
16100;BME280;8154;50.830;12.082;2024-02-21T08:03:54;99761.56;;;23.69;33.28
16100;BME280;8154;50.830;12.082;2024-02-21T08:06:22;99763.84;;;23.72;33.44
16100;BME280;8154;50.830;12.082;2024-02-21T08:08:50;99741.25;;;23.68;33.55
16100;BME280;8154;50.830;12.082;2024-02-21T08:11:19;99750.63;;;23.64;33.55
16100;BME280;8154;50.830;12.082;2024-02-21T08:13:54;99759.28;;;23.66;33.44
16100;BME280;8154;50.830;12.082;2024-02-21T08:16:22;99762.97;;;23.65;33.33
16100;BME280;8154;50.830;12.082;2024-02-21T08:18:52;99767.09;;;23.67;33.59
16100;BME280;8154;50.830;12.082;2024-02-21T08:21:21;99774.53;;;23.72;33.18
16100;BME280;8154;50.830;12.082;2024-02-21T08:23:49;99780.69;;;23.72;33.29
16100;BME280;8154;50.830;12.082;2024-02-21T08:26:18;99779.06;;;23.71;33.23
16100;BME280;8154;50.830;12.082;2024-02-21T08:28:45;99780.88;;;23.71;33.39
16100;BME280;8154;50.830;12.082;2024-02-21T08:31:11;99770.59;;;23.68;33.25
16100;BME280;8154;50.830;12.082;2024-02-21T08:33:44;99777.19;;;23.72;33.31
16100;BME280;8154;50.830;12.082;2024-02-21T08:36:19;99780.31;;;23.75;33.26
16100;BME280;8154;50.830;12.082;2024-02-21T08:38:51;99786.31;;;23.77;33.41
16100;BME280;8154;50.830;12.082;2024-02-21T08:41:22;99780.13;;;23.77;33.22
16100;BME280;8154;50.830;12.082;2024-02-21T08:43:53;99776.63;;;23.76;33.14
16100;BME280;8154;50.830;12.082;2024-02-21T08:46:23;99769.25;;;23.78;33.15
16100;BME280;8154;50.830;12.082;2024-02-21T08:48:54;99763.66;;;23.73;33.43
16100;BME280;8154;50.830;12.082;2024-02-21T08:51:23;99726.56;;;23.57;33.23
16100;BME280;8154;50.830;12.082;2024-02-21T08:53:50;99757.50;;;23.73;33.36
16100;BME280;8154;50.830;12.082;2024-02-21T08:56:19;99705.25;;;23.43;33.31
16100;BME280;8154;50.830;12.082;2024-02-21T08:58:48;99744.38;;;23.71;33.41
16100;BME280;8154;50.830;12.082;2024-02-21T09:01:16;99724.13;;;23.62;33.35
16100;BME280;8154;50.830;12.082;2024-02-21T09:03:45;99728.28;;;23.65;33.17
16100;BME280;8154;50.830;12.082;2024-02-21T09:06:16;99728.53;;;23.70;33.22
16100;BME280;8154;50.830;12.082;2024-02-21T09:08:44;99731.03;;;23.71;33.47
16100;BME280;8154;50.830;12.082;2024-02-21T09:11:10;99727.13;;;23.74;33.38
16100;BME280;8154;50.830;12.082;2024-02-21T09:13:37;99720.16;;;23.73;33.25
16100;BME280;8154;50.830;12.082;2024-02-21T09:16:03;99727.13;;;23.74;33.28
16100;BME280;8154;50.830;12.082;2024-02-21T09:18:30;99721.78;;;23.74;33.29
16100;BME280;8154;50.830;12.082;2024-02-21T09:21:00;99732.47;;;23.74;33.42
16100;BME280;8154;50.830;12.082;2024-02-21T09:23:32;99726.94;;;23.75;33.19
16100;BME280;8154;50.830;12.082;2024-02-21T09:26:01;99707.63;;;23.73;33.13
16100;BME280;8154;50.830;12.082;2024-02-21T09:28:33;99707.56;;;23.67;33.38
16100;BME280;8154;50.830;12.082;2024-02-21T09:31:02;99714.56;;;23.68;33.41
16100;BME280;8154;50.830;12.082;2024-02-21T09:33:48;99715.19;;;23.70;33.60
16100;BME280;8154;50.830;12.082;2024-02-21T09:36:15;99715.81;;;23.72;33.18
16100;BME280;8154;50.830;12.082;2024-02-21T09:38:42;99708.63;;;23.72;33.32
16100;BME280;8154;50.830;12.082;2024-02-21T09:41:27;99683.91;;;23.64;33.26
16100;BME280;8154;50.830;12.082;2024-02-21T09:43:56;99706.63;;;23.74;33.30
16100;BME280;8154;50.830;12.082;2024-02-21T09:49:33;99696.91;;;23.67;33.19
16100;BME280;8154;50.830;12.082;2024-02-21T09:52:01;99708.25;;;23.75;33.55
16100;BME280;8154;50.830;12.082;2024-02-21T09:54:33;99701.69;;;23.78;33.40
16100;BME280;8154;50.830;12.082;2024-02-21T09:57:02;99693.28;;;23.74;33.28
16100;BME280;8154;50.830;12.082;2024-02-21T09:59:32;99716.72;;;23.79;33.23
16100;BME280;8154;50.830;12.082;2024-02-21T10:01:58;99707.22;;;23.76;33.47
16100;BME280;8154;50.830;12.082;2024-02-21T10:04:49;99701.22;;;23.68;33.53
16100;BME280;8154;50.830;12.082;2024-02-21T10:07:17;99693.66;;;23.71;33.60
16100;BME280;8154;50.830;12.082;2024-02-21T10:09:49;99701.47;;;23.73;33.63
16100;BME280;8154;50.830;12.082;2024-02-21T10:12:20;99697.38;;;23.77;33.07
16100;BME280;8154;50.830;12.082;2024-02-21T10:14:46;99695.16;;;23.80;33.39
16100;BME280;8154;50.830;12.082;2024-02-21T10:17:17;99692.44;;;23.74;33.52
16100;BME280;8154;50.830;12.082;2024-02-21T10:19:45;99672.50;;;23.70;33.48
16100;BME280;8154;50.830;12.082;2024-02-21T10:22:15;99686.22;;;23.67;33.45
16100;BME280;8154;50.830;12.082;2024-02-21T10:25:11;99685.31;;;23.60;33.75
16100;BME280;8154;50.830;12.082;2024-02-21T10:27:41;99673.19;;;23.57;33.69
16100;BME280;8154;50.830;12.082;2024-02-21T10:30:14;99682.38;;;23.55;33.77
16100;BME280;8154;50.830;12.082;2024-02-21T10:32:50;99685.72;;;23.57;33.78
16100;BME280;8154;50.830;12.082;2024-02-21T10:35:30;99692.69;;;23.58;34.07
16100;BME280;8154;50.830;12.082;2024-02-21T10:37:58;99682.72;;;23.66;33.75
16100;BME280;8154;50.830;12.082;2024-02-21T10:40:26;99672.63;;;23.62;33.99
16100;BME280;8154;50.830;12.082;2024-02-21T10:43:06;99670.53;;;23.57;33.83
16100;BME280;8154;50.830;12.082;2024-02-21T10:45:41;99663.53;;;23.56;33.84
16100;BME280;8154;50.830;12.082;2024-02-21T10:48:14;99649.59;;;23.61;33.63
16100;BME280;8154;50.830;12.082;2024-02-21T10:51:09;99647.09;;;23.53;34.02
16100;BME280;8154;50.830;12.082;2024-02-21T10:56:28;99638.06;;;23.54;34.10
16100;BME280;8154;50.830;12.082;2024-02-21T10:58:58;99629.03;;;23.55;33.90
16100;BME280;8154;50.830;12.082;2024-02-21T11:01:24;99608.66;;;23.47;33.85
16100;BME280;8154;50.830;12.082;2024-02-21T11:03:56;99630.94;;;23.61;33.82
16100;BME280;8154;50.830;12.082;2024-02-21T11:06:23;99609.84;;;23.66;33.63
16100;BME280;8154;50.830;12.082;2024-02-21T11:09:04;99609.84;;;23.66;33.75
16100;BME280;8154;50.830;12.082;2024-02-21T11:11:35;99591.16;;;23.66;33.92
16100;BME280;8154;50.830;12.082;2024-02-21T11:14:18;99589.91;;;23.62;33.74
16100;BME280;8154;50.830;12.082;2024-02-21T11:16:48;99590.50;;;23.57;33.72
16100;BME280;8154;50.830;12.082;2024-02-21T11:21:47;99579.72;;;23.72;33.58
16100;BME280;8154;50.830;12.082;2024-02-21T11:24:28;99569.22;;;23.70;33.58
16100;BME280;8154;50.830;12.082;2024-02-21T11:27:18;99576.97;;;23.65;34.01
16100;BME280;8154;50.830;12.082;2024-02-21T11:29:49;99551.97;;;23.66;33.84
16100;BME280;8154;50.830;12.082;2024-02-21T11:32:22;99567.91;;;23.87;33.53
16100;BME280;8154;50.830;12.082;2024-02-21T11:34:57;99565.88;;;23.89;33.22
16100;BME280;8154;50.830;12.082;2024-02-21T11:37:35;99562.81;;;23.92;33.07
16100;BME280;8154;50.830;12.082;2024-02-21T11:40:12;99566.22;;;23.80;33.66
16100;BME280;8154;50.830;12.082;2024-02-21T11:42:39;99551.97;;;23.66;33.81
16100;BME280;8154;50.830;12.082;2024-02-21T11:45:06;99539.72;;;23.78;33.61
16100;BME280;8154;50.830;12.082;2024-02-21T11:47:34;99536.28;;;23.84;33.19
16100;BME280;8154;50.830;12.082;2024-02-21T11:50:00;99536.53;;;23.89;33.52
16100;BME280;8154;50.830;12.082;2024-02-21T11:52:36;99519.53;;;23.97;33.31
16100;BME280;8154;50.830;12.082;2024-02-21T11:55:06;99501.13;;;23.81;33.48
16100;BME280;8154;50.830;12.082;2024-02-21T11:57:38;99514.28;;;23.76;33.52
16100;BME280;8154;50.830;12.082;2024-02-21T12:00:14;99505.53;;;23.88;33.49
16100;BME280;8154;50.830;12.082;2024-02-21T12:02:44;99500.59;;;23.92;33.22
16100;BME280;8154;50.830;12.082;2024-02-21T12:05:11;99495.44;;;23.90;33.04
16100;BME280;8154;50.830;12.082;2024-02-21T12:07:38;99504.56;;;24.02;32.96
16100;BME280;8154;50.830;12.082;2024-02-21T12:10:11;99492.59;;;23.92;33.13
16100;BME280;8154;50.830;12.082;2024-02-21T12:12:39;99494.41;;;23.85;33.31
16100;BME280;8154;50.830;12.082;2024-02-21T12:15:14;99481.50;;;23.88;33.30
16100;BME280;8154;50.830;12.082;2024-02-21T12:17:42;99479.22;;;23.92;33.35
16100;BME280;8154;50.830;12.082;2024-02-21T12:20:12;99473.34;;;23.96;32.91
16100;BME280;8154;50.830;12.082;2024-02-21T12:22:39;99467.78;;;23.98;33.01
16100;BME280;8154;50.830;12.082;2024-02-21T12:25:16;99472.47;;;23.89;33.49
16100;BME280;8154;50.830;12.082;2024-02-21T12:27:50;99465.25;;;23.83;33.38
16100;BME280;8154;50.830;12.082;2024-02-21T12:30:17;99445.09;;;23.81;33.19
16100;BME280;8154;50.830;12.082;2024-02-21T12:32:43;99453.97;;;23.88;33.17
16100;BME280;8154;50.830;12.082;2024-02-21T12:35:10;99451.53;;;23.93;33.35
16100;BME280;8154;50.830;12.082;2024-02-21T12:37:37;99443.53;;;23.93;33.29
16100;BME280;8154;50.830;12.082;2024-02-21T12:40:09;99433.00;;;23.85;33.03
16100;BME280;8154;50.830;12.082;2024-02-21T12:42:39;99432.22;;;23.91;33.05
16100;BME280;8154;50.830;12.082;2024-02-21T12:45:07;99430.97;;;23.87;33.30
16100;BME280;8154;50.830;12.082;2024-02-21T12:47:54;99408.75;;;23.80;33.10
16100;BME280;8154;50.830;12.082;2024-02-21T12:50:23;99415.78;;;23.87;33.05
16100;BME280;8154;50.830;12.082;2024-02-21T12:52:49;99399.94;;;23.86;33.33
16100;BME280;8154;50.830;12.082;2024-02-21T12:55:19;99393.97;;;23.84;33.43
16100;BME280;8154;50.830;12.082;2024-02-21T12:58:05;99401.16;;;23.77;33.23
16100;BME280;8154;50.830;12.082;2024-02-21T13:00:34;99396.47;;;23.85;33.39
16100;BME280;8154;50.830;12.082;2024-02-21T13:03:05;99376.72;;;23.80;33.27
16100;BME280;8154;50.830;12.082;2024-02-21T13:05:36;99381.31;;;23.92;33.33
16100;BME280;8154;50.830;12.082;2024-02-21T13:08:14;99379.25;;;23.88;33.17
16100;BME280;8154;50.830;12.082;2024-02-21T13:10:40;99378.81;;;23.84;33.17
16100;BME280;8154;50.830;12.082;2024-02-21T13:13:06;99372.59;;;23.71;33.59
16100;BME280;8154;50.830;12.082;2024-02-21T13:15:32;99367.09;;;23.79;33.49
16100;BME280;8154;50.830;12.082;2024-02-21T13:18:01;99364.63;;;23.84;33.29
16100;BME280;8154;50.830;12.082;2024-02-21T13:20:30;99364.06;;;23.88;33.27
16100;BME280;8154;50.830;12.082;2024-02-21T13:22:57;99350.72;;;23.88;33.27
16100;BME280;8154;50.830;12.082;2024-02-21T13:25:25;99351.09;;;23.79;33.31